createdAt,value
2018-01-15T00:00:19.205Z,13.60
2018-01-15T00:01:19.179Z,14.20
2018-01-15T00:02:19.149Z,14.40
2018-01-15T00:03:19.125Z,13.70
2018-01-15T00:04:19.100Z,14.30
2018-01-15T00:05:19.069Z,14.50
2018-01-15T00:06:19.039Z,14.40
2018-01-15T00:07:19.018Z,14.60
2018-01-15T00:08:18.999Z,14.60
2018-01-15T00:09:18.968Z,14.60
2018-01-15T00:10:18.938Z,14.20
2018-01-15T00:11:18.909Z,14.90
2018-01-15T00:12:18.882Z,14.80
2018-01-15T00:13:18.859Z,14.40
2018-01-15T00:14:18.831Z,14.10
2018-01-15T00:15:18.805Z,14.70
2018-01-15T00:16:18.777Z,14.50
2018-01-15T00:17:18.760Z,14.30
2018-01-15T00:18:18.751Z,13.70
2018-01-15T00:19:18.696Z,15.50
2018-01-15T00:20:18.678Z,14.10
2018-01-15T00:21:18.641Z,14.80
2018-01-15T00:22:18.615Z,14.90
2018-01-15T00:23:18.589Z,15.20
2018-01-15T00:24:18.570Z,14.60
2018-01-15T00:25:18.536Z,15.40
2018-01-15T00:26:18.509Z,14.30
2018-01-15T00:27:18.485Z,14.40
2018-01-15T00:28:18.460Z,15.10
2018-01-15T00:29:18.428Z,14.50
2018-01-15T00:30:18.485Z,14.60
2018-01-15T00:31:18.376Z,14.40
2018-01-15T00:32:18.348Z,14.10
2018-01-15T00:33:18.338Z,13.70
2018-01-15T00:34:18.303Z,14.40
2018-01-15T00:35:18.277Z,15.10
2018-01-15T00:36:18.246Z,14.70
2018-01-15T00:37:18.214Z,15.20
2018-01-15T00:38:18.189Z,15.50
2018-01-15T00:39:18.165Z,16.50
2018-01-15T00:40:18.136Z,15.90
2018-01-15T00:41:18.108Z,14.90
2018-01-15T00:42:18.091Z,16.10
2018-01-15T00:43:18.059Z,15.10
2018-01-15T00:44:18.028Z,15.50
2018-01-15T00:45:18.003Z,15.60
2018-01-15T00:46:17.975Z,16.30
2018-01-15T00:47:17.948Z,15.80
2018-01-15T00:48:17.923Z,16.10
2018-01-15T00:49:17.895Z,15.20
2018-01-15T00:50:17.868Z,15.40
2018-01-15T00:51:17.842Z,14.90
2018-01-15T00:52:17.818Z,14.80
2018-01-15T00:53:17.791Z,15.40
2018-01-15T00:54:17.762Z,14.50
2018-01-15T00:55:17.737Z,15.40
2018-01-15T00:56:17.712Z,15.50
2018-01-15T00:57:17.681Z,15.80
2018-01-15T00:58:17.676Z,15.20
2018-01-15T00:59:17.645Z,16.10
2018-01-15T01:00:17.608Z,16.90
2018-01-15T01:01:17.609Z,15.70
2018-01-15T01:02:17.551Z,15.50
2018-01-15T01:03:17.526Z,15.50
2018-01-15T01:04:17.501Z,15.40
2018-01-15T01:05:17.476Z,15.50
2018-01-15T01:06:17.444Z,15.40
2018-01-15T01:07:17.419Z,15.80
2018-01-15T01:08:17.393Z,15.70
2018-01-15T01:09:17.393Z,15.70
2018-01-15T01:10:17.360Z,15.60
2018-01-15T01:11:17.311Z,15.40
2018-01-15T01:12:17.303Z,15.60
2018-01-15T01:13:17.259Z,15.90
2018-01-15T01:14:17.232Z,16.20
2018-01-15T01:15:17.210Z,15.90
2018-01-15T01:16:17.190Z,15.00
2018-01-15T01:17:17.154Z,16.20
2018-01-15T01:18:17.128Z,15.30
2018-01-15T01:19:17.100Z,15.50
2018-01-15T01:20:17.098Z,15.80
2018-01-15T01:21:17.048Z,16.80
2018-01-15T01:22:17.024Z,16.00
2018-01-15T01:23:17.002Z,15.70
2018-01-15T01:24:16.971Z,15.70
2018-01-15T01:25:16.955Z,16.00
2018-01-15T01:26:16.918Z,15.90
2018-01-15T01:27:16.897Z,15.40
2018-01-15T01:28:16.868Z,15.70
2018-01-15T01:29:16.847Z,15.90
2018-01-15T01:30:16.812Z,15.70
2018-01-15T01:31:16.791Z,15.40
2018-01-15T01:32:16.763Z,15.60
2018-01-15T01:33:16.737Z,16.10
2018-01-15T01:34:16.787Z,16.10
2018-01-15T01:35:16.681Z,15.40
2018-01-15T01:36:16.664Z,16.20
2018-01-15T01:37:16.708Z,16.10
2018-01-15T01:38:16.604Z,15.80
2018-01-15T01:39:16.578Z,15.90
2018-01-15T01:40:16.603Z,16.30
2018-01-15T01:41:16.526Z,16.40
2018-01-15T01:42:16.498Z,16.80
2018-01-15T01:43:16.502Z,16.50
2018-01-15T01:44:16.455Z,15.90
2018-01-15T01:45:16.423Z,16.30
2018-01-15T01:46:16.396Z,16.30
2018-01-15T01:47:16.367Z,16.60
2018-01-15T01:48:16.341Z,15.40
2018-01-15T01:49:16.315Z,15.60
2018-01-15T01:50:16.290Z,15.90
2018-01-15T01:51:16.266Z,15.90
2018-01-15T01:52:16.236Z,16.60
2018-01-15T01:53:16.212Z,16.50
2018-01-15T01:54:16.182Z,16.10
2018-01-15T01:55:16.156Z,16.60
2018-01-15T01:56:16.146Z,17.40
2018-01-15T01:57:16.105Z,17.10
2018-01-15T01:58:16.082Z,17.30
2018-01-15T01:59:16.054Z,16.70
2018-01-15T02:00:16.028Z,16.20
2018-01-15T02:01:16.004Z,16.90
2018-01-15T02:02:15.976Z,16.70
2018-01-15T02:03:15.953Z,17.30
2018-01-15T02:04:15.926Z,15.90
2018-01-15T02:05:15.912Z,16.10
2018-01-15T02:06:15.871Z,15.70
2018-01-15T02:07:15.844Z,16.90
2018-01-15T02:08:15.823Z,16.50
2018-01-15T02:09:15.791Z,16.90
2018-01-15T02:10:15.766Z,16.00
2018-01-15T02:11:15.740Z,16.40
2018-01-15T02:12:15.716Z,17.10
2018-01-15T02:13:15.804Z,16.70
2018-01-15T02:14:15.660Z,15.50
2018-01-15T02:15:15.636Z,15.50
2018-01-15T02:16:15.723Z,16.80
2018-01-15T02:17:15.584Z,16.50
2018-01-15T02:18:15.560Z,15.90
2018-01-15T02:19:15.541Z,16.00
2018-01-15T02:20:15.509Z,16.90
2018-01-15T02:21:15.481Z,16.20
2018-01-15T02:22:15.460Z,16.30
2018-01-15T02:23:15.429Z,15.30
2018-01-15T02:24:15.405Z,16.40
2018-01-15T02:25:15.379Z,16.50
2018-01-15T02:26:15.360Z,16.50
2018-01-15T02:27:15.323Z,16.60
2018-01-15T02:28:15.301Z,15.70
2018-01-15T02:29:15.274Z,15.80
2018-01-15T02:30:15.249Z,16.40
2018-01-15T02:31:15.223Z,16.60
2018-01-15T02:32:15.199Z,17.00
2018-01-15T02:33:15.172Z,16.60
2018-01-15T02:34:15.143Z,15.30
2018-01-15T02:35:15.126Z,15.40
2018-01-15T02:36:15.100Z,16.50
2018-01-15T02:37:15.068Z,15.10
2018-01-15T02:38:15.092Z,15.60
2018-01-15T02:39:15.017Z,16.20
2018-01-15T02:40:14.990Z,15.40
2018-01-15T02:41:15.052Z,15.80
2018-01-15T02:42:14.947Z,16.50
2018-01-15T02:43:14.913Z,15.20
2018-01-15T02:44:14.886Z,15.80
2018-01-15T02:45:14.870Z,15.60
2018-01-15T02:46:14.837Z,16.00
2018-01-15T02:47:14.813Z,15.50
2018-01-15T02:48:14.795Z,16.40
2018-01-15T02:49:14.773Z,16.00
2018-01-15T02:50:14.734Z,15.90
2018-01-15T02:51:14.706Z,16.60
2018-01-15T02:52:14.800Z,16.30
2018-01-15T02:53:14.650Z,16.40
2018-01-15T02:54:14.630Z,15.90
2018-01-15T02:55:14.660Z,15.60
2018-01-15T02:56:14.580Z,16.10
2018-01-15T02:57:14.556Z,16.30
2018-01-15T02:58:14.529Z,15.50
2018-01-15T02:59:14.505Z,16.10
2018-01-15T03:00:14.477Z,16.10
2018-01-15T03:01:14.454Z,16.20
2018-01-15T03:02:14.426Z,16.60
2018-01-15T03:03:14.400Z,16.40
2018-01-15T03:04:14.376Z,16.20
2018-01-15T03:05:14.354Z,16.20
2018-01-15T03:06:14.338Z,16.10
2018-01-15T03:07:14.300Z,15.40
2018-01-15T03:08:14.272Z,16.60
2018-01-15T03:09:14.250Z,15.90
2018-01-15T03:10:14.227Z,15.90
2018-01-15T03:11:14.203Z,16.20
2018-01-15T03:12:14.172Z,15.60
2018-01-15T03:13:14.145Z,14.90
2018-01-15T03:14:14.118Z,15.70
2018-01-15T03:15:14.185Z,15.80
2018-01-15T03:16:14.073Z,15.90
2018-01-15T03:17:14.149Z,16.00
2018-01-15T03:18:14.020Z,16.50
2018-01-15T03:19:13.993Z,15.80
2018-01-15T03:20:14.009Z,16.00
2018-01-15T03:21:13.949Z,16.10
2018-01-15T03:22:13.925Z,16.50
2018-01-15T03:23:13.894Z,15.80
2018-01-15T03:24:13.866Z,16.10
2018-01-15T03:25:13.852Z,16.10
2018-01-15T03:26:13.817Z,15.80
2018-01-15T03:27:13.792Z,14.90
2018-01-15T03:28:13.766Z,16.20
2018-01-15T03:29:13.740Z,16.50
2018-01-15T03:30:13.712Z,15.80
2018-01-15T03:31:13.690Z,16.10
2018-01-15T03:32:13.665Z,16.10
2018-01-15T03:33:13.640Z,16.50
2018-01-15T03:34:13.613Z,15.80
2018-01-15T03:35:13.585Z,15.90
2018-01-15T03:36:13.561Z,16.00
2018-01-15T03:37:13.538Z,15.10
2018-01-15T03:38:13.510Z,15.80
2018-01-15T03:39:13.485Z,16.40
2018-01-15T03:40:13.459Z,16.70
2018-01-15T03:41:13.441Z,16.50
2018-01-15T03:42:13.410Z,15.30
2018-01-15T03:43:13.383Z,15.70
2018-01-15T03:44:13.359Z,15.20
2018-01-15T03:45:13.330Z,15.10
2018-01-15T03:46:13.308Z,16.50
2018-01-15T03:47:13.280Z,16.70
2018-01-15T03:48:13.266Z,15.40
2018-01-15T03:49:13.230Z,16.00
2018-01-15T03:50:13.207Z,16.30
2018-01-15T03:51:13.180Z,16.10
2018-01-15T03:52:13.157Z,15.80
2018-01-15T03:53:13.282Z,15.40
2018-01-15T03:54:13.108Z,15.10
2018-01-15T03:55:13.078Z,16.00
2018-01-15T03:56:13.068Z,14.80
2018-01-15T03:57:13.027Z,16.00
2018-01-15T03:58:13.001Z,16.20
2018-01-15T03:59:12.981Z,16.20
2018-01-15T04:00:12.959Z,15.40
2018-01-15T04:01:12.926Z,17.00
2018-01-15T04:02:12.899Z,16.00
2018-01-15T04:03:12.874Z,16.30
2018-01-15T04:04:12.848Z,16.40
2018-01-15T04:05:12.829Z,15.80
2018-01-15T04:06:12.795Z,16.50
2018-01-15T04:07:12.775Z,16.50
2018-01-15T04:08:12.745Z,16.00
2018-01-15T04:09:12.719Z,15.60
2018-01-15T04:10:12.713Z,16.30
2018-01-15T04:11:12.671Z,15.40
2018-01-15T04:12:12.645Z,15.90
2018-01-15T04:13:12.618Z,16.60
2018-01-15T04:14:12.595Z,16.30
2018-01-15T04:15:12.568Z,16.20
2018-01-15T04:16:12.545Z,16.80
2018-01-15T04:17:12.513Z,15.70
2018-01-15T04:18:12.520Z,16.10
2018-01-15T04:19:12.464Z,15.60
2018-01-15T04:20:12.488Z,15.40
2018-01-15T04:21:12.413Z,15.40
2018-01-15T04:22:12.388Z,16.90
2018-01-15T04:23:12.358Z,15.60
2018-01-15T04:24:12.336Z,15.00
2018-01-15T04:25:12.305Z,16.10
2018-01-15T04:26:12.286Z,15.60
2018-01-15T04:27:12.262Z,15.60
2018-01-15T04:28:12.233Z,15.70
2018-01-15T04:29:12.309Z,15.70
2018-01-15T04:30:12.180Z,15.00
2018-01-15T04:31:12.152Z,15.90
2018-01-15T04:32:12.145Z,15.80
2018-01-15T04:33:12.101Z,15.50
2018-01-15T04:34:12.074Z,15.20
2018-01-15T04:35:12.053Z,15.80
2018-01-15T04:36:12.023Z,15.00
2018-01-15T04:37:12.004Z,15.30
2018-01-15T04:38:11.971Z,15.10
2018-01-15T04:39:11.946Z,15.00
2018-01-15T04:40:11.923Z,15.40
2018-01-15T04:41:11.894Z,15.40
2018-01-15T04:42:11.865Z,15.50
2018-01-15T04:43:11.840Z,16.50
2018-01-15T04:44:11.819Z,15.70
2018-01-15T04:45:11.799Z,15.30
2018-01-15T04:46:11.765Z,15.50
2018-01-15T04:47:11.743Z,16.30
2018-01-15T04:48:11.709Z,15.70
2018-01-15T04:49:11.685Z,16.00
2018-01-15T04:50:11.661Z,15.30
2018-01-15T04:51:11.631Z,15.10
2018-01-15T04:52:11.607Z,16.30
2018-01-15T04:53:11.588Z,15.60
2018-01-15T04:54:11.562Z,16.50
2018-01-15T04:55:11.527Z,15.60
2018-01-15T04:56:11.500Z,16.60
2018-01-15T04:57:11.488Z,16.10
2018-01-15T04:58:11.449Z,15.60
2018-01-15T04:59:11.424Z,15.70
2018-01-15T05:00:11.444Z,14.60
2018-01-15T05:01:11.371Z,16.30
2018-01-15T05:02:11.348Z,15.40
2018-01-15T05:03:11.324Z,15.10
2018-01-15T05:04:11.297Z,16.00
2018-01-15T05:05:11.314Z,15.70
2018-01-15T05:06:11.249Z,14.60
2018-01-15T05:07:11.218Z,15.60
2018-01-15T05:08:11.197Z,16.60
2018-01-15T05:09:11.166Z,15.00
2018-01-15T05:10:11.142Z,15.10
2018-01-15T05:11:11.211Z,16.00
2018-01-15T05:12:11.086Z,16.70
2018-01-15T05:13:11.058Z,15.10
2018-01-15T05:14:11.056Z,16.20
2018-01-15T05:15:11.009Z,15.50
2018-01-15T05:16:10.985Z,16.80
2018-01-15T05:17:10.954Z,16.00
2018-01-15T05:18:10.929Z,15.50
2018-01-15T05:19:10.905Z,16.50
2018-01-15T05:20:10.876Z,16.20
2018-01-15T05:21:10.854Z,15.30
2018-01-15T05:22:10.824Z,16.00
2018-01-15T05:23:10.799Z,15.70
2018-01-15T05:24:10.788Z,16.20
2018-01-15T05:25:10.746Z,15.60
2018-01-15T05:26:10.730Z,15.20
2018-01-15T05:27:10.700Z,16.10
2018-01-15T05:28:10.674Z,15.70
2018-01-15T05:29:10.643Z,15.00
2018-01-15T05:30:10.616Z,17.10
2018-01-15T05:31:10.592Z,16.50
2018-01-15T05:32:10.565Z,15.70
2018-01-15T05:33:10.674Z,16.30
2018-01-15T05:34:10.512Z,15.60
2018-01-15T05:35:10.488Z,15.00
2018-01-15T05:36:10.474Z,15.10
2018-01-15T05:37:10.435Z,15.90
2018-01-15T05:38:10.412Z,15.90
2018-01-15T05:39:10.438Z,16.40
2018-01-15T05:40:10.360Z,15.70
2018-01-15T05:41:10.332Z,15.50
2018-01-15T05:42:10.319Z,15.80
2018-01-15T05:43:10.289Z,15.60
2018-01-15T05:44:10.258Z,16.10
2018-01-15T05:45:10.282Z,14.80
2018-01-15T05:46:10.204Z,15.80
2018-01-15T05:47:10.181Z,15.90
2018-01-15T05:48:10.157Z,15.10
2018-01-15T05:49:10.134Z,15.80
2018-01-15T05:50:10.100Z,15.80
2018-01-15T05:51:10.077Z,15.80
2018-01-15T05:52:10.051Z,16.00
2018-01-15T05:53:10.023Z,16.20
2018-01-15T05:54:10.001Z,15.40
2018-01-15T05:55:09.980Z,15.70
2018-01-15T05:56:09.950Z,15.80
2018-01-15T05:57:09.919Z,15.50
2018-01-15T05:58:09.903Z,15.00
2018-01-15T05:59:09.867Z,16.10
2018-01-15T06:00:09.844Z,15.90
2018-01-15T06:01:09.820Z,15.20
2018-01-15T06:02:09.792Z,15.70
2018-01-15T06:03:09.782Z,15.60
2018-01-15T06:04:09.739Z,15.00
2018-01-15T06:05:09.714Z,15.60
2018-01-15T06:06:09.702Z,15.70
2018-01-15T06:07:09.701Z,15.10
2018-01-15T06:08:09.639Z,14.40
2018-01-15T06:09:09.610Z,15.50
2018-01-15T06:10:09.588Z,14.60
2018-01-15T06:11:09.569Z,16.10
2018-01-15T06:12:09.544Z,14.70
2018-01-15T06:13:09.508Z,14.80
2018-01-15T06:14:09.482Z,14.60
2018-01-15T06:15:09.512Z,15.20
2018-01-15T06:16:09.433Z,14.90
2018-01-15T06:17:09.411Z,16.00
2018-01-15T06:18:09.421Z,14.90
2018-01-15T06:19:09.355Z,15.10
2018-01-15T06:20:09.329Z,14.80
2018-01-15T06:21:09.319Z,15.00
2018-01-15T06:22:09.280Z,15.70
2018-01-15T06:23:09.257Z,16.60
2018-01-15T06:24:09.228Z,15.60
2018-01-15T06:25:09.199Z,16.30
2018-01-15T06:26:09.179Z,15.60
2018-01-15T06:27:09.154Z,15.80
2018-01-15T06:28:09.130Z,16.00
2018-01-15T06:29:09.100Z,14.80
2018-01-15T06:30:09.078Z,15.00
2018-01-15T06:31:09.061Z,15.60
2018-01-15T06:32:09.025Z,14.60
2018-01-15T06:33:08.998Z,15.00
2018-01-15T06:34:08.977Z,16.20
2018-01-15T06:35:08.949Z,16.10
2018-01-15T06:36:08.933Z,15.50
2018-01-15T06:37:08.895Z,15.70
2018-01-15T06:38:08.874Z,15.70
2018-01-15T06:39:08.844Z,16.10
2018-01-15T06:40:08.830Z,15.30
2018-01-15T06:41:08.794Z,15.80
2018-01-15T06:42:08.770Z,14.70
2018-01-15T06:43:08.744Z,14.70
2018-01-15T06:44:08.774Z,14.60
2018-01-15T06:45:08.695Z,16.40
2018-01-15T06:46:08.679Z,14.30
2018-01-15T06:47:08.643Z,15.50
2018-01-15T06:48:08.618Z,15.10
2018-01-15T06:49:08.594Z,15.60
2018-01-15T06:50:08.566Z,16.00
2018-01-15T06:51:08.577Z,16.40
2018-01-15T06:52:08.515Z,15.90
2018-01-15T06:53:08.494Z,15.60
2018-01-15T06:54:08.549Z,15.20
2018-01-15T06:55:08.450Z,14.40
2018-01-15T06:56:08.417Z,15.90
2018-01-15T06:57:08.397Z,15.80
2018-01-15T06:58:08.368Z,15.00
2018-01-15T06:59:08.342Z,15.20
2018-01-15T07:00:08.314Z,14.90
2018-01-15T07:01:08.287Z,14.60
2018-01-15T07:02:08.263Z,14.60
2018-01-15T07:03:08.245Z,14.80
2018-01-15T07:04:08.213Z,15.60
2018-01-15T07:05:08.186Z,15.00
2018-01-15T07:06:08.160Z,15.90
2018-01-15T07:07:08.136Z,15.70
2018-01-15T07:08:08.111Z,15.00
2018-01-15T07:09:08.086Z,15.50
2018-01-15T07:10:08.071Z,14.70
2018-01-15T07:11:08.040Z,14.80
2018-01-15T07:12:08.011Z,16.00
2018-01-15T07:13:07.987Z,15.50
2018-01-15T07:14:07.960Z,14.90
2018-01-15T07:15:07.936Z,16.10
2018-01-15T07:16:07.930Z,16.20
2018-01-15T07:17:07.883Z,16.00
2018-01-15T07:18:07.870Z,16.10
2018-01-15T07:19:07.870Z,15.60
2018-01-15T07:20:07.810Z,15.60
2018-01-15T07:21:07.782Z,14.90
2018-01-15T07:22:07.800Z,16.00
2018-01-15T07:23:07.734Z,14.90
2018-01-15T07:24:07.711Z,15.40
2018-01-15T07:25:07.678Z,15.90
2018-01-15T07:26:07.654Z,15.60
2018-01-15T07:27:07.632Z,15.30
2018-01-15T07:28:07.604Z,15.60
2018-01-15T07:29:07.579Z,15.40
2018-01-15T07:30:07.554Z,16.90
2018-01-15T07:31:07.528Z,14.80
2018-01-15T07:32:07.502Z,14.50
2018-01-15T07:33:07.484Z,15.60
2018-01-15T07:34:07.458Z,15.70
2018-01-15T07:35:07.427Z,16.10
2018-01-15T07:36:07.406Z,15.00
2018-01-15T07:37:07.378Z,15.80
2018-01-15T07:38:07.350Z,16.30
2018-01-15T07:39:07.341Z,15.30
2018-01-15T07:40:07.302Z,14.30
2018-01-15T07:41:07.277Z,14.50
2018-01-15T07:42:07.251Z,17.20
2018-01-15T07:43:07.226Z,15.80
2018-01-15T07:44:07.199Z,15.60
2018-01-15T07:45:07.177Z,16.60
2018-01-15T07:46:07.148Z,15.80
2018-01-15T07:47:07.128Z,15.10
2018-01-15T07:48:07.099Z,15.90
2018-01-15T07:49:07.076Z,14.10
2018-01-15T07:50:07.048Z,15.90
2018-01-15T07:51:07.026Z,15.30
2018-01-15T07:52:07.020Z,16.20
2018-01-15T07:53:06.980Z,16.40
2018-01-15T07:54:06.949Z,16.30
2018-01-15T07:55:07.014Z,16.40
2018-01-15T07:56:06.898Z,16.20
2018-01-15T07:57:06.881Z,15.50
2018-01-15T07:58:06.904Z,15.10
2018-01-15T07:59:06.827Z,16.50
2018-01-15T08:00:06.805Z,15.30
2018-01-15T08:01:06.776Z,15.60
2018-01-15T08:02:06.756Z,15.90
2018-01-15T08:03:06.724Z,15.60
2018-01-15T08:04:06.700Z,15.20
2018-01-15T08:05:06.676Z,15.80
2018-01-15T08:06:06.648Z,16.00
2018-01-15T08:07:06.629Z,14.70
2018-01-15T08:08:06.606Z,15.80
2018-01-15T08:09:06.574Z,15.30
2018-01-15T08:10:06.549Z,14.40
2018-01-15T08:11:06.529Z,15.40
2018-01-15T08:12:06.501Z,15.00
2018-01-15T08:13:06.483Z,15.50
2018-01-15T08:14:06.449Z,15.30
2018-01-15T08:15:06.424Z,15.10
2018-01-15T08:16:06.409Z,16.10
2018-01-15T08:17:06.372Z,14.40
2018-01-15T08:18:06.349Z,15.60
2018-01-15T08:19:06.322Z,15.30
2018-01-15T08:20:06.301Z,15.20
2018-01-15T08:21:06.274Z,15.70
2018-01-15T08:22:06.254Z,15.50
2018-01-15T08:23:06.224Z,15.10
2018-01-15T08:24:06.205Z,14.80
2018-01-15T08:25:06.175Z,15.10
2018-01-15T08:26:06.159Z,15.60
2018-01-15T08:27:06.123Z,14.90
2018-01-15T08:28:06.110Z,15.70
2018-01-15T08:29:06.074Z,14.10
2018-01-15T08:30:06.054Z,14.80
2018-01-15T08:31:06.128Z,14.70
2018-01-15T08:32:06.010Z,13.90
2018-01-15T08:33:05.975Z,14.80
2018-01-15T08:34:06.028Z,15.70
2018-01-15T08:35:05.966Z,14.90
2018-01-15T08:36:05.900Z,16.40
2018-01-15T08:37:05.879Z,14.80
2018-01-15T08:38:05.859Z,15.30
2018-01-15T08:39:05.829Z,16.30
2018-01-15T08:40:05.804Z,15.70
2018-01-15T08:41:05.786Z,14.60
2018-01-15T08:42:05.751Z,14.80
2018-01-15T08:43:05.728Z,15.50
2018-01-15T08:44:05.703Z,14.90
2018-01-15T08:45:05.680Z,15.70
2018-01-15T08:46:05.667Z,15.20
2018-01-15T08:47:05.628Z,15.60
2018-01-15T08:48:05.603Z,15.80
2018-01-15T08:49:05.580Z,14.90
2018-01-15T08:50:05.565Z,15.60
2018-01-15T08:51:05.539Z,16.60
2018-01-15T08:52:05.511Z,15.90
2018-01-15T08:53:05.481Z,15.80
2018-01-15T08:54:05.459Z,14.80
2018-01-15T08:55:05.433Z,15.10
2018-01-15T08:56:05.419Z,14.40
2018-01-15T08:57:05.394Z,16.10
2018-01-15T08:58:05.360Z,16.50
2018-01-15T08:59:05.356Z,14.30
2018-01-15T09:00:05.311Z,15.90
2018-01-15T09:01:05.299Z,15.30
2018-01-15T09:02:05.270Z,17.40
2018-01-15T09:03:05.239Z,15.10
2018-01-15T09:04:05.224Z,14.40
2018-01-15T09:05:05.188Z,13.90
2018-01-15T09:06:05.166Z,15.50
2018-01-15T09:07:05.141Z,15.50
2018-01-15T09:08:05.118Z,14.70
2018-01-15T09:09:05.101Z,15.70
2018-01-15T09:10:05.128Z,13.40
2018-01-15T09:11:05.047Z,15.20
2018-01-15T09:12:05.021Z,16.10
2018-01-15T09:13:04.995Z,15.60
2018-01-15T09:14:04.970Z,14.60
2018-01-15T09:15:04.947Z,15.50
2018-01-15T09:16:04.927Z,14.50
2018-01-15T09:17:04.900Z,14.80
2018-01-15T09:18:04.873Z,15.30
2018-01-15T09:19:04.863Z,14.40
2018-01-15T09:20:04.830Z,14.70
2018-01-15T09:21:04.804Z,14.60
2018-01-15T09:22:04.779Z,14.10
2018-01-15T09:23:04.755Z,14.10
2018-01-15T09:24:04.736Z,13.30
2018-01-15T09:25:04.717Z,14.60
2018-01-15T09:26:04.684Z,14.40
2018-01-15T09:27:04.660Z,15.10
2018-01-15T09:28:04.638Z,14.80
2018-01-15T09:29:04.635Z,14.20
2018-01-15T09:30:04.587Z,14.80
2018-01-15T09:31:04.568Z,15.00
2018-01-15T09:32:04.589Z,14.00
2018-01-15T09:33:04.516Z,14.80
2018-01-15T09:34:04.502Z,13.40
2018-01-15T09:35:04.481Z,13.90
2018-01-15T09:36:04.453Z,14.30
2018-01-15T09:37:04.424Z,14.00
2018-01-15T09:38:04.404Z,14.10
2018-01-15T09:39:04.383Z,14.80
2018-01-15T09:40:04.354Z,14.40
2018-01-15T09:41:04.333Z,14.80
2018-01-15T09:42:04.311Z,14.10
2018-01-15T09:43:04.291Z,14.00
2018-01-15T09:44:04.271Z,14.30
2018-01-15T09:45:04.240Z,14.20
2018-01-15T09:46:04.216Z,14.10
2018-01-15T09:47:04.194Z,14.70
2018-01-15T09:48:04.170Z,13.20
2018-01-15T09:49:04.146Z,15.00
2018-01-15T09:50:04.123Z,14.20
2018-01-15T09:51:04.101Z,14.30
2018-01-15T09:52:04.088Z,14.80
2018-01-15T09:53:04.051Z,14.60
2018-01-15T09:54:04.039Z,13.10
2018-01-15T09:55:04.015Z,15.00
2018-01-15T09:56:03.992Z,14.50
2018-01-15T09:57:03.959Z,14.30
2018-01-15T09:58:03.939Z,14.70
2018-01-15T09:59:03.913Z,14.10
2018-01-15T10:00:03.891Z,13.30
2018-01-15T10:01:03.867Z,14.30
2018-01-15T10:02:03.864Z,13.60
2018-01-15T10:03:03.823Z,14.80
2018-01-15T10:04:03.800Z,14.40
2018-01-15T10:05:03.890Z,14.50
2018-01-15T10:06:03.757Z,14.20
2018-01-15T10:07:03.731Z,13.90
2018-01-15T10:08:03.762Z,14.20
2018-01-15T10:09:03.726Z,13.60
2018-01-15T10:10:03.668Z,13.40
2018-01-15T10:11:03.643Z,14.00
2018-01-15T10:12:03.627Z,14.80
2018-01-15T10:13:03.625Z,13.70
2018-01-15T10:14:03.574Z,13.90
2018-01-15T10:15:03.552Z,13.20
2018-01-15T10:16:03.532Z,13.50
2018-01-15T10:17:03.505Z,12.60
2018-01-15T10:18:03.512Z,13.10
2018-01-15T10:19:03.478Z,12.90
2018-01-15T10:20:03.441Z,12.70
2018-01-15T10:21:03.418Z,13.10
2018-01-15T10:22:03.405Z,12.90
2018-01-15T10:23:03.374Z,12.50
2018-01-15T10:24:03.356Z,12.30
2018-01-15T10:25:03.331Z,13.00
2018-01-15T10:26:03.311Z,12.90
2018-01-15T10:27:03.344Z,12.80
2018-01-15T10:28:03.263Z,12.70
2018-01-15T10:29:03.243Z,12.80
2018-01-15T10:30:03.241Z,12.70
2018-01-15T10:31:03.197Z,12.30
2018-01-15T10:32:03.184Z,13.10
2018-01-15T10:33:03.162Z,12.50
2018-01-15T10:34:03.133Z,11.60
2018-01-15T10:35:03.110Z,12.40
2018-01-15T10:36:03.088Z,12.80
2018-01-15T10:37:03.064Z,12.30
2018-01-15T10:38:03.053Z,11.80
2018-01-15T10:39:03.022Z,11.00
2018-01-15T10:40:03.006Z,12.30
2018-01-15T10:41:02.982Z,12.20
2018-01-15T10:42:02.970Z,13.00
2018-01-15T10:43:02.934Z,12.70
2018-01-15T10:44:02.912Z,12.60
2018-01-15T10:45:02.887Z,12.40
2018-01-15T10:46:02.864Z,13.00
2018-01-15T10:47:02.852Z,12.70
2018-01-15T10:48:02.823Z,12.30
2018-01-15T10:49:02.802Z,12.80
2018-01-15T10:50:02.784Z,12.80
2018-01-15T10:51:02.766Z,12.40
2018-01-15T10:52:02.736Z,12.20
2018-01-15T10:53:02.712Z,12.50
2018-01-15T10:54:02.701Z,13.00
2018-01-15T10:55:02.671Z,12.70
2018-01-15T10:56:02.651Z,11.40
2018-01-15T10:57:02.623Z,12.40
2018-01-15T10:58:02.603Z,12.80
2018-01-15T10:59:02.590Z,12.40
2018-01-15T11:00:02.674Z,12.80
2018-01-15T11:01:02.560Z,12.70
2018-01-15T11:02:02.520Z,11.90
2018-01-15T11:03:02.499Z,12.60
2018-01-15T11:04:02.472Z,12.50
2018-01-15T11:05:02.461Z,11.80
2018-01-15T11:06:02.452Z,11.60
2018-01-15T11:07:02.418Z,12.40
2018-01-15T11:08:02.388Z,11.70
2018-01-15T11:09:02.370Z,12.60
2018-01-15T11:10:02.342Z,11.80
2018-01-15T11:11:02.322Z,13.10
2018-01-15T11:12:02.298Z,11.90
2018-01-15T11:13:02.284Z,11.30
2018-01-15T11:14:02.260Z,11.80
2018-01-15T11:15:02.241Z,12.20
2018-01-15T11:16:02.213Z,11.90
2018-01-15T11:17:02.191Z,12.30
2018-01-15T11:18:02.168Z,12.20
2018-01-15T11:19:02.166Z,12.20
2018-01-15T11:20:02.133Z,12.60
2018-01-15T11:21:02.112Z,11.60
2018-01-15T11:22:02.238Z,12.50
2018-01-15T11:23:02.068Z,11.80
2018-01-15T11:24:02.044Z,12.60
2018-01-15T11:25:02.075Z,12.30
2018-01-15T11:26:01.996Z,11.20
2018-01-15T11:27:01.980Z,10.80
2018-01-15T11:28:01.956Z,11.00
2018-01-15T11:29:01.946Z,11.70
2018-01-15T11:30:01.919Z,10.60
2018-01-15T11:31:01.890Z,10.90
2018-01-15T11:32:01.878Z,10.70
2018-01-15T11:33:01.852Z,12.10
2018-01-15T11:34:01.836Z,11.00
2018-01-15T11:35:01.808Z,11.00
2018-01-15T11:36:01.785Z,11.20
2018-01-15T11:37:01.778Z,10.80
2018-01-15T11:38:01.758Z,10.70
2018-01-15T11:39:01.720Z,10.80
2018-01-15T11:40:01.710Z,10.60
2018-01-15T11:41:01.676Z,10.40
2018-01-15T11:42:01.656Z,10.10
2018-01-15T11:43:01.636Z,10.60
2018-01-15T11:44:01.614Z,10.10
2018-01-15T11:45:01.593Z,10.10
2018-01-15T11:46:01.580Z,10.30
2018-01-15T11:47:01.554Z,10.90
2018-01-15T11:48:01.533Z,10.40
2018-01-15T11:49:01.509Z,11.00
2018-01-15T11:50:01.489Z,10.20
2018-01-15T11:51:01.468Z,10.20
2018-01-15T11:52:01.468Z,10.40
2018-01-15T11:53:01.431Z,11.10
2018-01-15T11:54:01.418Z,10.70
2018-01-15T11:55:01.388Z,9.60
2018-01-15T11:56:01.363Z,10.00
2018-01-15T11:57:01.340Z,9.80
2018-01-15T11:58:01.372Z,10.20
2018-01-15T11:59:01.297Z,10.10
2018-01-15T12:00:01.284Z,10.00
2018-01-15T12:01:01.257Z,10.00
2018-01-15T12:02:01.234Z,10.30
2018-01-15T12:03:01.218Z,10.30
2018-01-15T12:04:01.191Z,10.40
2018-01-15T12:05:01.186Z,9.60
2018-01-15T12:06:01.153Z,11.00
2018-01-15T12:07:01.139Z,10.20
2018-01-15T12:08:01.110Z,10.60
2018-01-15T12:09:01.085Z,10.50
2018-01-15T12:10:01.066Z,10.00
2018-01-15T12:11:01.042Z,12.30
2018-01-15T12:12:01.023Z,10.00
2018-01-15T12:13:01.008Z,9.90
2018-01-15T12:14:01.053Z,10.40
2018-01-15T12:15:00.962Z,9.80
2018-01-15T12:16:00.952Z,10.40
2018-01-15T12:17:00.945Z,9.40
2018-01-15T12:18:00.902Z,8.90
2018-01-15T12:19:00.878Z,9.80
2018-01-15T12:20:00.866Z,9.70
2018-01-15T12:21:00.835Z,9.30
2018-01-15T12:22:00.820Z,9.40
2018-01-15T12:23:00.793Z,9.00
2018-01-15T12:24:00.771Z,10.20
2018-01-15T12:25:00.758Z,9.80
2018-01-15T12:26:00.730Z,9.00
2018-01-15T12:27:00.711Z,8.60
2018-01-15T12:28:00.689Z,9.70
2018-01-15T12:29:00.664Z,9.60
2018-01-15T12:30:00.659Z,10.00
2018-01-15T12:31:00.632Z,10.10
2018-01-15T12:32:00.604Z,10.00
2018-01-15T12:33:00.578Z,9.90
2018-01-15T12:34:00.566Z,10.20
2018-01-15T12:35:00.548Z,10.50
2018-01-15T12:36:00.518Z,9.90
2018-01-15T12:37:00.497Z,9.60
2018-01-15T12:38:00.473Z,9.20
2018-01-15T12:39:00.451Z,8.70
2018-01-15T12:40:00.430Z,9.20
2018-01-15T12:41:00.419Z,9.10
2018-01-15T12:42:00.389Z,9.10
2018-01-15T12:43:00.367Z,9.30
2018-01-15T12:44:00.358Z,9.10
2018-01-15T12:45:00.327Z,9.30
2018-01-15T12:46:00.310Z,9.00
2018-01-15T12:47:00.416Z,8.90
2018-01-15T12:48:00.261Z,9.30
2018-01-15T12:49:00.248Z,8.50
2018-01-15T12:50:00.270Z,8.70
2018-01-15T12:51:00.198Z,8.50
2018-01-15T12:52:00.176Z,9.30
2018-01-15T12:53:00.154Z,8.80